createdAt,value
2019-03-12T00:00:15.320Z,1005.28
2019-03-12T00:01:25.995Z,1005.26
2019-03-12T00:02:36.673Z,1005.26
2019-03-12T00:03:47.350Z,1005.29
2019-03-12T00:04:58.028Z,1005.34
2019-03-12T00:06:08.695Z,1005.34
2019-03-12T00:07:19.378Z,1005.44
2019-03-12T00:08:30.052Z,1005.42
2019-03-12T00:09:40.729Z,1005.48
2019-03-12T00:10:51.409Z,1005.46
2019-03-12T00:12:02.072Z,1005.54
2019-03-12T00:13:12.746Z,1005.56
2019-03-12T00:14:23.418Z,1005.68
2019-03-12T00:15:34.087Z,1005.74
2019-03-12T00:16:44.757Z,1005.73
2019-03-12T00:17:55.437Z,1005.85
2019-03-12T00:19:06.105Z,1005.92
2019-03-12T00:20:16.760Z,1005.93
2019-03-12T00:21:27.426Z,1006.00
2019-03-12T00:22:38.091Z,1006.02
2019-03-12T00:23:48.763Z,1006.06
2019-03-12T00:24:59.430Z,1006.07
2019-03-12T00:26:10.100Z,1006.06
2019-03-12T00:27:20.776Z,1006.03
2019-03-12T00:28:31.453Z,1006.09
2019-03-12T00:29:42.112Z,1006.12
2019-03-12T00:30:52.771Z,1006.13
2019-03-12T00:32:03.430Z,1006.15
2019-03-12T00:33:14.104Z,1006.13
2019-03-12T00:34:24.774Z,1006.10
2019-03-12T00:35:35.448Z,1006.14
2019-03-12T00:36:46.111Z,1006.19
2019-03-12T00:37:56.782Z,1006.17
2019-03-12T00:39:07.453Z,1006.15
2019-03-12T00:40:18.144Z,1006.17
2019-03-12T00:41:28.810Z,1006.18
2019-03-12T00:42:39.471Z,1006.18
2019-03-12T00:43:50.134Z,1006.20
2019-03-12T00:45:01.305Z,1006.13
2019-03-12T00:46:12.642Z,1006.10
2019-03-12T00:47:23.317Z,1006.15
2019-03-12T00:48:33.985Z,1006.13
2019-03-12T00:49:44.656Z,1006.14
2019-03-12T00:50:55.329Z,1006.13
2019-03-12T00:52:06.004Z,1006.18
2019-03-12T00:53:16.682Z,1006.19
2019-03-12T00:54:27.355Z,1006.17
2019-03-12T00:55:38.018Z,1006.10
2019-03-12T00:56:48.687Z,1006.09
2019-03-12T00:57:59.549Z,1006.12
2019-03-12T00:59:10.707Z,1006.10
2019-03-12T01:00:21.383Z,1006.13
2019-03-12T01:01:33.054Z,1006.06
2019-03-12T01:02:43.733Z,1006.08
2019-03-12T01:03:54.396Z,1006.10
2019-03-12T01:05:05.077Z,1006.12
2019-03-12T01:06:15.746Z,1006.10
2019-03-12T01:07:26.407Z,1006.05
2019-03-12T01:08:37.069Z,1006.06
2019-03-12T01:09:47.745Z,1006.02
2019-03-12T01:10:58.406Z,1006.03
2019-03-12T01:12:09.070Z,1006.07
2019-03-12T01:13:19.734Z,1006.12
2019-03-12T01:14:30.886Z,1006.09
2019-03-12T01:15:41.553Z,1006.16
2019-03-12T01:16:52.216Z,1006.16
2019-03-12T01:18:03.379Z,1006.18
2019-03-12T01:19:14.059Z,1006.21
2019-03-12T01:20:24.724Z,1006.26
2019-03-12T01:21:35.391Z,1006.26
2019-03-12T01:22:47.057Z,1006.25
2019-03-12T01:23:57.720Z,1006.31
2019-03-12T01:25:08.397Z,1006.30
2019-03-12T01:26:19.071Z,1006.30
2019-03-12T01:27:29.735Z,1006.32
2019-03-12T01:28:40.397Z,1006.30
2019-03-12T01:29:51.052Z,1006.32
2019-03-12T01:31:01.718Z,1006.32
2019-03-12T01:32:12.379Z,1006.33
2019-03-12T01:33:23.530Z,1006.30
2019-03-12T01:34:34.199Z,1006.37
2019-03-12T01:35:44.862Z,1006.39
2019-03-12T01:36:55.516Z,1006.42
2019-03-12T01:38:06.189Z,1006.45
2019-03-12T01:39:16.879Z,1006.45
2019-03-12T01:40:27.537Z,1006.43
2019-03-12T01:41:39.200Z,1006.37
2019-03-12T01:42:52.381Z,1006.36
2019-03-12T01:44:00.523Z,1006.37
2019-03-12T01:45:11.189Z,1006.40
2019-03-12T01:46:21.853Z,1006.39
2019-03-12T01:47:32.531Z,1006.40
2019-03-12T01:48:43.188Z,1006.43
2019-03-12T01:49:53.843Z,1006.43
2019-03-12T01:51:04.522Z,1006.43
2019-03-12T01:52:15.180Z,1006.46
2019-03-12T01:53:25.839Z,1006.46
2019-03-12T01:54:36.497Z,1006.50
2019-03-12T01:55:47.154Z,1006.60
2019-03-12T01:56:57.826Z,1006.59
2019-03-12T01:58:08.496Z,1006.60
2019-03-12T01:59:19.161Z,1006.66
2019-03-12T02:00:29.821Z,1006.63
2019-03-12T02:01:40.483Z,1006.60
2019-03-12T02:02:51.154Z,1006.58
2019-03-12T02:04:01.804Z,1006.58
2019-03-12T02:05:12.648Z,1006.60
2019-03-12T02:06:23.325Z,1006.60
2019-03-12T02:07:33.985Z,1006.59
2019-03-12T02:08:44.647Z,1006.60
2019-03-12T02:09:56.327Z,1006.55
2019-03-12T02:11:06.977Z,1006.44
2019-03-12T02:12:17.641Z,1006.40
2019-03-12T02:13:28.309Z,1006.45
2019-03-12T02:14:38.980Z,1006.44
2019-03-12T02:15:49.635Z,1006.43
2019-03-12T02:17:00.299Z,1006.42
2019-03-12T02:18:10.954Z,1006.42
2019-03-12T02:19:21.610Z,1006.37
2019-03-12T02:20:32.275Z,1006.38
2019-03-12T02:21:42.929Z,1006.34
2019-03-12T02:22:53.640Z,1006.34
2019-03-12T02:24:04.259Z,1006.33
2019-03-12T02:25:14.926Z,1006.33
2019-03-12T02:26:25.592Z,1006.31
2019-03-12T02:27:36.261Z,1006.31
2019-03-12T02:28:46.915Z,1006.30
2019-03-12T02:29:57.581Z,1006.31
2019-03-12T02:31:09.267Z,1006.36
2019-03-12T02:32:19.913Z,1006.45
2019-03-12T02:33:30.587Z,1006.41
2019-03-12T02:34:41.263Z,1006.38
2019-03-12T02:35:51.918Z,1006.41
2019-03-12T02:37:02.576Z,1006.37
2019-03-12T02:38:13.241Z,1006.44
2019-03-12T02:39:23.922Z,1006.47
2019-03-12T02:40:34.580Z,1006.46
2019-03-12T02:41:45.245Z,1006.46
2019-03-12T02:42:55.918Z,1006.39
2019-03-12T02:44:06.585Z,1006.36
2019-03-12T02:45:17.269Z,1006.36
2019-03-12T02:46:27.893Z,1006.30
2019-03-12T02:47:38.551Z,1006.29
2019-03-12T02:48:49.222Z,1006.26
2019-03-12T02:49:59.901Z,1006.32
2019-03-12T02:51:10.554Z,1006.30
2019-03-12T02:52:21.211Z,1006.31
2019-03-12T02:53:31.878Z,1006.26
2019-03-12T02:54:42.532Z,1006.30
2019-03-12T02:55:53.200Z,1006.33
2019-03-12T02:57:03.866Z,1006.38
2019-03-12T02:58:14.545Z,1006.39
2019-03-12T02:59:25.206Z,1006.39
2019-03-12T03:00:35.870Z,1006.35
2019-03-12T03:01:46.546Z,1006.33
2019-03-12T03:02:57.200Z,1006.28
2019-03-12T03:04:07.864Z,1006.28
2019-03-12T03:05:18.522Z,1006.24
2019-03-12T03:06:29.182Z,1006.23
2019-03-12T03:07:39.835Z,1006.23
2019-03-12T03:08:51.495Z,1006.19
2019-03-12T03:10:02.156Z,1006.17
2019-03-12T03:11:12.815Z,1006.16
2019-03-12T03:12:23.475Z,1006.15
2019-03-12T03:13:34.159Z,1006.15
2019-03-12T03:14:44.804Z,1006.12
2019-03-12T03:15:55.456Z,1006.23
2019-03-12T03:17:06.113Z,1006.28
2019-03-12T03:18:16.770Z,1006.25
2019-03-12T03:19:28.431Z,1006.31
2019-03-12T03:20:39.099Z,1006.36
2019-03-12T03:21:49.747Z,1006.38
2019-03-12T03:23:00.401Z,1006.43
2019-03-12T03:24:11.061Z,1006.41
2019-03-12T03:25:21.718Z,1006.43
2019-03-12T03:26:32.377Z,1006.43
2019-03-12T03:27:43.034Z,1006.43
2019-03-12T03:28:53.689Z,1006.44
2019-03-12T03:30:04.361Z,1006.47
2019-03-12T03:31:15.007Z,1006.42
2019-03-12T03:32:25.656Z,1006.43
2019-03-12T03:33:36.312Z,1006.40
2019-03-12T03:34:46.986Z,1006.33
2019-03-12T03:35:57.652Z,1006.32
2019-03-12T03:37:08.305Z,1006.30
2019-03-12T03:38:18.963Z,1006.25
2019-03-12T03:39:30.618Z,1006.23
2019-03-12T03:40:41.286Z,1006.21
2019-03-12T03:41:51.939Z,1006.20
2019-03-12T03:43:02.593Z,1006.20
2019-03-12T03:44:13.246Z,1006.17
2019-03-12T03:45:23.975Z,1006.14
2019-03-12T03:46:34.557Z,1006.12
2019-03-12T03:47:45.217Z,1006.17
2019-03-12T03:48:55.872Z,1006.23
2019-03-12T03:50:06.528Z,1006.25
2019-03-12T03:51:17.192Z,1006.26
2019-03-12T03:52:27.842Z,1006.26
2019-03-12T03:53:38.500Z,1006.28
2019-03-12T03:54:49.155Z,1006.25
2019-03-12T03:55:59.817Z,1006.26
2019-03-12T03:57:10.618Z,1006.30
2019-03-12T03:58:21.580Z,1006.30
2019-03-12T03:59:32.236Z,1006.26
2019-03-12T04:00:42.894Z,1006.27
2019-03-12T04:01:53.851Z,1006.26
2019-03-12T04:03:04.504Z,1006.22
2019-03-12T04:04:15.150Z,1006.23
2019-03-12T04:05:26.129Z,1006.16
2019-03-12T04:06:36.782Z,1006.08
2019-03-12T04:07:47.425Z,1006.05
2019-03-12T04:08:58.068Z,1006.03
2019-03-12T04:10:08.727Z,1005.99
2019-03-12T04:11:19.392Z,1006.00
2019-03-12T04:12:30.037Z,1005.96
2019-03-12T04:13:40.692Z,1005.99
2019-03-12T04:14:51.350Z,1006.00
2019-03-12T04:16:02.049Z,1006.05
2019-03-12T04:17:12.659Z,1006.09
2019-03-12T04:18:23.317Z,1006.14
2019-03-12T04:19:33.974Z,1006.17
2019-03-12T04:20:44.628Z,1006.20
2019-03-12T04:21:55.275Z,1006.23
2019-03-12T04:23:05.930Z,1006.21
2019-03-12T04:24:16.579Z,1006.22
2019-03-12T04:25:27.223Z,1006.28
2019-03-12T04:26:37.877Z,1006.20
2019-03-12T04:27:48.519Z,1006.20
2019-03-12T04:28:59.197Z,1006.16
2019-03-12T04:30:09.850Z,1006.15
2019-03-12T04:31:20.485Z,1006.09
2019-03-12T04:32:31.145Z,1006.09
2019-03-12T04:33:41.797Z,1006.05
2019-03-12T04:34:52.441Z,1006.04
2019-03-12T04:36:04.093Z,1006.04
2019-03-12T04:37:14.766Z,1005.99
2019-03-12T04:38:26.408Z,1006.02
2019-03-12T04:39:37.053Z,1005.93
2019-03-12T04:40:47.695Z,1006.00
2019-03-12T04:41:58.363Z,1005.96
2019-03-12T04:43:09.007Z,1005.91
2019-03-12T04:44:19.674Z,1005.96
2019-03-12T04:45:30.316Z,1005.96
2019-03-12T04:46:40.969Z,1005.94
2019-03-12T04:47:51.627Z,1005.96
2019-03-12T04:49:02.271Z,1006.00
2019-03-12T04:50:12.914Z,1006.03
2019-03-12T04:51:23.557Z,1005.98
2019-03-12T04:52:34.217Z,1005.97
2019-03-12T04:53:44.869Z,1005.97
2019-03-12T04:54:55.524Z,1005.96
2019-03-12T04:56:06.182Z,1005.95
2019-03-12T04:57:16.837Z,1005.90
2019-03-12T04:58:28.628Z,1005.92
2019-03-12T04:59:39.282Z,1005.84
2019-03-12T05:00:49.937Z,1005.86
2019-03-12T05:02:00.597Z,1005.86
2019-03-12T05:03:11.247Z,1005.83
2019-03-12T05:04:21.904Z,1005.80
2019-03-12T05:05:32.558Z,1005.83
2019-03-12T05:06:43.217Z,1005.78
2019-03-12T05:07:53.873Z,1005.76
2019-03-12T05:09:04.529Z,1005.72
2019-03-12T05:10:15.180Z,1005.73
2019-03-12T05:11:25.824Z,1005.77
2019-03-12T05:12:36.653Z,1005.70
2019-03-12T05:13:47.305Z,1005.69
2019-03-12T05:14:57.951Z,1005.70
2019-03-12T05:16:08.596Z,1005.70
2019-03-12T05:17:19.247Z,1005.66
2019-03-12T05:18:29.902Z,1005.70
2019-03-12T05:19:40.553Z,1005.67
2019-03-12T05:20:51.207Z,1005.68
2019-03-12T05:22:01.860Z,1005.70
2019-03-12T05:23:12.517Z,1005.67
2019-03-12T05:24:23.171Z,1005.66
2019-03-12T05:25:33.823Z,1005.67
2019-03-12T05:26:44.635Z,1005.64
2019-03-12T05:27:55.283Z,1005.66
2019-03-12T05:29:05.936Z,1005.63
2019-03-12T05:30:16.581Z,1005.63
2019-03-12T05:31:27.230Z,1005.63
2019-03-12T05:32:37.882Z,1005.60
2019-03-12T05:33:48.537Z,1005.57
2019-03-12T05:34:59.188Z,1005.56
2019-03-12T05:36:09.842Z,1005.57
2019-03-12T05:37:20.644Z,1005.58
2019-03-12T05:38:31.792Z,1005.59
2019-03-12T05:39:42.448Z,1005.57
2019-03-12T05:40:53.087Z,1005.59
2019-03-12T05:42:03.740Z,1005.56
2019-03-12T05:43:14.397Z,1005.55
2019-03-12T05:44:25.059Z,1005.52
2019-03-12T05:45:35.702Z,1005.52
2019-03-12T05:46:46.349Z,1005.48
2019-03-12T05:47:56.992Z,1005.41
2019-03-12T05:49:07.646Z,1005.40
2019-03-12T05:50:18.289Z,1005.38
2019-03-12T05:51:28.939Z,1005.41
2019-03-12T05:52:39.594Z,1005.35
2019-03-12T05:53:50.242Z,1005.32
2019-03-12T05:55:00.901Z,1005.36
2019-03-12T05:56:11.557Z,1005.30
2019-03-12T05:57:22.201Z,1005.37
2019-03-12T05:58:32.855Z,1005.35
2019-03-12T05:59:43.508Z,1005.38
2019-03-12T06:00:54.153Z,1005.37
2019-03-12T06:02:04.812Z,1005.35
2019-03-12T06:03:15.464Z,1005.32
2019-03-12T06:04:26.129Z,1005.32
2019-03-12T06:05:36.792Z,1005.30
2019-03-12T06:06:47.445Z,1005.27
2019-03-12T06:07:58.100Z,1005.28
2019-03-12T06:09:08.754Z,1005.28
2019-03-12T06:10:19.418Z,1005.32
2019-03-12T06:11:30.058Z,1005.27
2019-03-12T06:12:40.734Z,1005.34
2019-03-12T06:13:51.378Z,1005.36
2019-03-12T06:15:02.044Z,1005.36
2019-03-12T06:16:12.705Z,1005.38
2019-03-12T06:17:23.362Z,1005.40
2019-03-12T06:18:34.018Z,1005.37
2019-03-12T06:19:44.678Z,1005.37
2019-03-12T06:20:55.347Z,1005.37
2019-03-12T06:22:05.999Z,1005.36
2019-03-12T06:23:16.758Z,1005.42
2019-03-12T06:24:28.802Z,1005.37
2019-03-12T06:25:39.955Z,1005.33
2019-03-12T06:26:50.612Z,1005.30
2019-03-12T06:28:01.268Z,1005.33
2019-03-12T06:29:11.926Z,1005.35
2019-03-12T06:30:25.746Z,1005.32
2019-03-12T06:31:33.278Z,1005.30
2019-03-12T06:32:43.943Z,1005.31
2019-03-12T06:33:54.609Z,1005.26
2019-03-12T06:35:05.267Z,1005.22
2019-03-12T06:36:15.947Z,1005.22
2019-03-12T06:37:26.621Z,1005.16
2019-03-12T06:38:37.282Z,1005.11
2019-03-12T06:39:47.944Z,1005.11
2019-03-12T06:40:58.634Z,1005.09
2019-03-12T06:42:09.302Z,1005.06
2019-03-12T06:43:19.966Z,1005.02
2019-03-12T06:44:30.633Z,1005.02
2019-03-12T06:45:41.304Z,1004.98
2019-03-12T06:46:51.968Z,1004.95
2019-03-12T06:48:02.631Z,1004.88
2019-03-12T06:49:13.298Z,1004.82
2019-03-12T06:50:23.960Z,1004.81
2019-03-12T06:51:35.121Z,1004.80
2019-03-12T06:52:45.794Z,1004.82
2019-03-12T06:53:56.621Z,1004.80
2019-03-12T06:55:07.282Z,1004.77
2019-03-12T06:56:17.962Z,1004.79
2019-03-12T06:57:28.645Z,1004.81
2019-03-12T06:58:39.314Z,1004.86
2019-03-12T06:59:50.990Z,1004.84
2019-03-12T07:01:02.667Z,1004.78
2019-03-12T07:02:13.349Z,1004.65
2019-03-12T07:03:24.030Z,1004.62
2019-03-12T07:04:34.707Z,1004.51
2019-03-12T07:05:45.358Z,1004.44
2019-03-12T07:06:56.059Z,1004.40
2019-03-12T07:08:06.714Z,1004.38
2019-03-12T07:09:17.390Z,1004.38
2019-03-12T07:10:28.070Z,1004.36
2019-03-12T07:11:38.755Z,1004.32
2019-03-12T07:12:49.908Z,1004.30
2019-03-12T07:14:01.581Z,1004.31
2019-03-12T07:15:12.249Z,1004.29
2019-03-12T07:16:22.919Z,1004.31
2019-03-12T07:17:33.605Z,1004.34
2019-03-12T07:18:45.283Z,1004.26
2019-03-12T07:19:55.986Z,1004.27
2019-03-12T07:21:06.654Z,1004.26
2019-03-12T07:22:17.336Z,1004.27
2019-03-12T07:23:28.016Z,1004.24
2019-03-12T07:24:38.699Z,1004.27
2019-03-12T07:25:50.784Z,1004.23
2019-03-12T07:27:00.041Z,1004.21
2019-03-12T07:28:10.727Z,1004.19
2019-03-12T07:29:21.402Z,1004.15
2019-03-12T07:30:32.078Z,1004.14
2019-03-12T07:31:42.758Z,1004.03
2019-03-12T07:32:56.136Z,1004.01
2019-03-12T07:34:04.122Z,1003.97
2019-03-12T07:35:15.803Z,1003.91
2019-03-12T07:36:26.489Z,1003.81
2019-03-12T07:37:37.175Z,1003.79
2019-03-12T07:38:48.854Z,1003.70
2019-03-12T07:39:59.536Z,1003.75
2019-03-12T07:41:22.950Z,1003.69
2019-03-12T07:42:20.914Z,1003.57
2019-03-12T07:43:31.605Z,1003.59
2019-03-12T07:44:42.299Z,1003.49
2019-03-12T07:45:52.986Z,1003.45
2019-03-12T07:47:03.669Z,1003.41
2019-03-12T07:48:14.360Z,1003.43
2019-03-12T07:49:25.339Z,1003.33
2019-03-12T07:50:36.031Z,1003.31
2019-03-12T07:51:46.715Z,1003.34
2019-03-12T07:52:57.410Z,1003.28
2019-03-12T07:54:08.111Z,1003.28
2019-03-12T07:55:18.787Z,1003.27
2019-03-12T07:56:29.478Z,1003.23
2019-03-12T07:57:40.165Z,1003.15
2019-03-12T07:58:50.858Z,1003.18
2019-03-12T08:00:01.554Z,1003.10
2019-03-12T08:01:12.252Z,1003.08
2019-03-12T08:02:22.933Z,1003.02
2019-03-12T08:03:33.631Z,1003.00
2019-03-12T08:04:44.329Z,1003.00
2019-03-12T08:05:55.025Z,1002.96
2019-03-12T08:07:05.717Z,1002.95
2019-03-12T08:08:16.900Z,1002.90
2019-03-12T08:09:27.604Z,1002.84
2019-03-12T08:10:38.303Z,1002.81
2019-03-12T08:11:48.990Z,1002.82
2019-03-12T08:12:59.699Z,1002.78
2019-03-12T08:14:10.399Z,1002.74
2019-03-12T08:15:23.314Z,1002.79
2019-03-12T08:16:32.785Z,1002.77
2019-03-12T08:17:43.484Z,1002.81
2019-03-12T08:18:54.184Z,1002.73
2019-03-12T08:20:04.880Z,1002.70
2019-03-12T08:21:22.253Z,1002.64
2019-03-12T08:22:26.280Z,1002.57
2019-03-12T08:23:36.995Z,1002.60
2019-03-12T08:24:47.704Z,1002.52
2019-03-12T08:25:58.425Z,1002.48
2019-03-12T08:27:09.119Z,1002.37
2019-03-12T08:28:19.835Z,1002.38
2019-03-12T08:29:30.542Z,1002.32
2019-03-12T08:30:41.235Z,1002.35
2019-03-12T08:31:51.935Z,1002.28
2019-03-12T08:33:02.641Z,1002.26
2019-03-12T08:34:13.836Z,1002.22
2019-03-12T08:35:24.542Z,1002.14
2019-03-12T08:36:35.239Z,1002.09
2019-03-12T08:37:45.950Z,1002.04
2019-03-12T08:38:57.650Z,1002.01
2019-03-12T08:40:08.368Z,1001.96
2019-03-12T08:41:19.080Z,1001.84
2019-03-12T08:42:30.276Z,1001.81
2019-03-12T08:43:40.983Z,1001.75
2019-03-12T08:44:51.696Z,1001.72
2019-03-12T08:46:02.423Z,1001.74
2019-03-12T08:47:13.620Z,1001.61
2019-03-12T08:48:24.330Z,1001.63
2019-03-12T08:49:35.065Z,1001.57
2019-03-12T08:50:45.766Z,1001.54
2019-03-12T08:51:56.484Z,1001.50
2019-03-12T08:53:07.195Z,1001.32
2019-03-12T08:54:17.981Z,1001.27
2019-03-12T08:55:28.642Z,1001.26
2019-03-12T08:56:39.368Z,1001.11
2019-03-12T08:57:50.089Z,1001.04
2019-03-12T08:59:00.814Z,1000.93
2019-03-12T09:00:11.548Z,1000.87
2019-03-12T09:01:22.280Z,1000.77
2019-03-12T09:02:33.016Z,1000.66
2019-03-12T09:03:43.736Z,1000.60
2019-03-12T09:04:54.979Z,1000.54
2019-03-12T09:06:05.749Z,1000.44
2019-03-12T09:07:16.645Z,1000.42
2019-03-12T09:08:27.381Z,1000.29
2019-03-12T09:09:38.130Z,1000.21
2019-03-12T09:10:48.890Z,1000.06
2019-03-12T09:11:59.639Z,999.91
2019-03-12T09:13:10.396Z,999.76
2019-03-12T09:14:21.154Z,999.60
2019-03-12T09:15:31.928Z,999.45
2019-03-12T09:16:42.692Z,999.20
2019-03-12T09:17:53.958Z,999.13
2019-03-12T09:19:04.728Z,999.09
2019-03-12T09:20:15.505Z,998.97
2019-03-12T09:21:26.299Z,999.00
2019-03-12T09:22:37.086Z,998.96
2019-03-12T09:23:47.869Z,998.98
2019-03-12T09:24:58.660Z,998.92
2019-03-12T09:26:09.463Z,998.67
2019-03-12T09:27:20.263Z,998.50
2019-03-12T09:28:31.066Z,998.31
2019-03-12T09:29:41.870Z,998.38
2019-03-12T09:30:52.683Z,998.33
2019-03-12T09:32:03.493Z,998.37
2019-03-12T09:33:14.303Z,998.36
2019-03-12T09:34:25.111Z,998.32
2019-03-12T09:35:35.929Z,998.29
2019-03-12T09:36:46.745Z,998.14
2019-03-12T09:37:57.562Z,997.99
2019-03-12T09:39:08.868Z,997.95
2019-03-12T09:40:19.683Z,998.17
2019-03-12T09:41:30.506Z,998.05
2019-03-12T09:42:41.828Z,998.00
2019-03-12T09:43:52.645Z,998.01
2019-03-12T09:45:03.487Z,997.59
2019-03-12T09:46:14.329Z,997.24
2019-03-12T09:47:26.157Z,997.06
2019-03-12T09:48:36.987Z,996.92
2019-03-12T09:49:47.835Z,996.52
2019-03-12T09:50:58.689Z,995.93
2019-03-12T09:52:09.550Z,996.12
2019-03-12T09:53:20.413Z,995.96
2019-03-12T09:54:31.282Z,995.70
2019-03-12T09:55:42.676Z,995.46
2019-03-12T09:56:53.589Z,995.47
2019-03-12T09:58:04.498Z,995.16
2019-03-12T09:59:15.426Z,994.74
2019-03-12T10:00:26.369Z,994.79
2019-03-12T10:01:37.328Z,994.73
2019-03-12T10:02:48.293Z,994.57
2019-03-12T10:03:59.275Z,994.56
2019-03-12T10:05:10.271Z,994.34
2019-03-12T10:06:21.287Z,994.31
2019-03-12T10:07:32.312Z,994.03
2019-03-12T10:08:43.341Z,994.16
2019-03-12T10:09:54.393Z,993.90
2019-03-12T10:11:05.461Z,993.86
2019-03-12T10:12:16.542Z,993.99
2019-03-12T10:13:27.644Z,993.96
2019-03-12T10:14:38.753Z,993.82
2019-03-12T10:15:49.883Z,994.03
2019-03-12T10:17:01.014Z,994.21
2019-03-12T10:18:12.197Z,994.46
2019-03-12T10:19:24.768Z,994.65
2019-03-12T10:20:35.903Z,995.28
2019-03-12T10:21:47.043Z,995.76
2019-03-12T10:22:58.170Z,996.53
2019-03-12T10:24:09.792Z,996.74
2019-03-12T10:25:20.916Z,996.63
2019-03-12T10:26:32.046Z,996.13
2019-03-12T10:27:43.184Z,996.18
2019-03-12T10:28:54.304Z,996.51
2019-03-12T10:30:05.430Z,996.43
2019-03-12T10:31:16.664Z,997.05
2019-03-12T10:32:27.764Z,998.05
2019-03-12T10:33:38.855Z,998.02
2019-03-12T10:34:50.432Z,997.99
2019-03-12T10:36:01.570Z,998.13
2019-03-12T10:37:16.245Z,997.70
2019-03-12T10:38:23.708Z,996.75
2019-03-12T10:39:35.800Z,995.65
2019-03-12T10:40:46.909Z,995.42
2019-03-12T10:41:59.496Z,995.80
2019-03-12T10:43:10.595Z,995.83
2019-03-12T10:44:22.686Z,996.54
2019-03-12T10:45:34.770Z,996.84
2019-03-12T10:46:45.849Z,997.12
2019-03-12T10:47:56.937Z,997.83
2019-03-12T10:49:08.618Z,997.64
2019-03-12T10:50:19.708Z,996.84
2019-03-12T10:51:30.824Z,996.06
2019-03-12T10:52:41.943Z,995.36
2019-03-12T10:53:53.072Z,995.43
2019-03-12T10:55:12.827Z,995.09
2019-03-12T10:56:15.851Z,995.08
2019-03-12T10:57:27.293Z,994.83
2019-03-12T10:58:38.446Z,995.39
2019-03-12T10:59:50.649Z,996.03
2019-03-12T11:01:01.802Z,996.54
2019-03-12T11:02:12.926Z,997.03
2019-03-12T11:03:24.059Z,997.77
2019-03-12T11:04:35.180Z,998.25
2019-03-12T11:05:46.535Z,998.63
2019-03-12T11:06:57.396Z,998.75
2019-03-12T11:08:08.978Z,999.14
2019-03-12T11:09:20.058Z,999.46
2019-03-12T11:10:31.130Z,999.45
2019-03-12T11:11:42.201Z,999.52
2019-03-12T11:12:53.259Z,999.64
2019-03-12T11:14:04.426Z,999.73
2019-03-12T11:15:15.474Z,999.82
2019-03-12T11:16:26.522Z,999.85
2019-03-12T11:17:49.002Z,999.82
2019-03-12T11:18:48.610Z,999.73
2019-03-12T11:19:59.655Z,999.89
2019-03-12T11:21:10.687Z,999.99
2019-03-12T11:22:21.707Z,999.94
2019-03-12T11:23:32.740Z,999.65
2019-03-12T11:24:43.770Z,999.58
2019-03-12T11:25:54.787Z,999.62
2019-03-12T11:27:05.815Z,999.40
2019-03-12T11:28:16.834Z,999.33
2019-03-12T11:29:27.864Z,999.13
2019-03-12T11:30:39.382Z,998.94
2019-03-12T11:31:50.902Z,998.87
2019-03-12T11:33:01.930Z,998.99
2019-03-12T11:34:12.937Z,999.25
2019-03-12T11:35:23.948Z,999.26
2019-03-12T11:36:34.957Z,999.32
2019-03-12T11:37:45.987Z,999.13
2019-03-12T11:38:56.973Z,999.18
2019-03-12T11:40:07.992Z,999.36
2019-03-12T11:41:19.136Z,999.45
2019-03-12T11:42:29.971Z,999.35
2019-03-12T11:43:40.977Z,999.37
2019-03-12T11:44:52.136Z,999.34
2019-03-12T11:46:02.941Z,999.27
2019-03-12T11:47:14.923Z,999.26
2019-03-12T11:48:25.920Z,999.26
2019-03-12T11:49:37.392Z,999.32
2019-03-12T11:50:48.367Z,999.17
2019-03-12T11:52:00.336Z,999.17
2019-03-12T11:53:11.332Z,999.14
2019-03-12T11:54:22.303Z,999.04
2019-03-12T11:55:33.273Z,998.92
2019-03-12T11:56:44.706Z,999.00
2019-03-12T11:57:55.673Z,999.05
2019-03-12T11:59:06.643Z,999.07
2019-03-12T12:00:19.439Z,999.06
2019-03-12T12:01:29.561Z,999.10
2019-03-12T12:02:40.526Z,999.03
2019-03-12T12:03:51.484Z,999.04
2019-03-12T12:05:02.441Z,999.03
2019-03-12T12:06:13.444Z,998.87
2019-03-12T12:07:24.350Z,998.91
2019-03-12T12:08:35.307Z,998.61
2019-03-12T12:09:46.273Z,998.36
2019-03-12T12:10:57.215Z,998.28
2019-03-12T12:12:08.676Z,998.30
2019-03-12T12:13:20.113Z,998.18
2019-03-12T12:14:31.634Z,998.28
2019-03-12T12:15:42.587Z,998.22
2019-03-12T12:16:53.537Z,998.19
2019-03-12T12:18:06.005Z,998.00
2019-03-12T12:19:17.451Z,998.10
2019-03-12T12:20:30.366Z,998.01
2019-03-12T12:21:39.348Z,997.99
2019-03-12T12:22:50.297Z,998.03
2019-03-12T12:24:01.234Z,998.14
2019-03-12T12:25:12.187Z,998.24
2019-03-12T12:26:23.136Z,998.24
2019-03-12T12:27:34.077Z,998.21
2019-03-12T12:28:45.013Z,998.21
2019-03-12T12:29:55.957Z,998.07
2019-03-12T12:31:07.380Z,998.17
2019-03-12T12:32:18.314Z,998.17
2019-03-12T12:33:29.239Z,998.13
2019-03-12T12:34:40.679Z,998.11
2019-03-12T12:35:51.609Z,997.99
2019-03-12T12:37:03.039Z,998.08
2019-03-12T12:38:13.972Z,998.01
2019-03-12T12:39:24.915Z,997.86
2019-03-12T12:40:36.344Z,997.83
2019-03-12T12:41:47.275Z,997.82
2019-03-12T12:42:58.211Z,997.81
2019-03-12T12:44:09.661Z,997.71
2019-03-12T12:45:20.602Z,997.70
2019-03-12T12:46:31.541Z,997.50
2019-03-12T12:47:42.627Z,997.52
2019-03-12T12:48:53.579Z,997.59
2019-03-12T12:50:04.509Z,997.46
2019-03-12T12:51:15.462Z,997.39
2019-03-12T12:52:26.421Z,997.12
2019-03-12T12:53:37.869Z,997.05
2019-03-12T12:54:50.316Z,997.11
2019-03-12T12:56:01.282Z,996.85
2019-03-12T12:57:12.263Z,996.61
2019-03-12T12:58:23.209Z,996.55
2019-03-12T12:59:34.180Z,996.37
2019-03-12T13:00:45.642Z,996.27
2019-03-12T13:01:56.614Z,996.28
2019-03-12T13:03:07.590Z,996.38
2019-03-12T13:04:18.564Z,996.45
2019-03-12T13:05:29.546Z,996.52
2019-03-12T13:06:40.507Z,996.43
2019-03-12T13:07:51.475Z,996.48
2019-03-12T13:09:02.426Z,996.64
2019-03-12T13:10:13.386Z,996.74
2019-03-12T13:11:24.350Z,996.81
2019-03-12T13:12:35.307Z,996.89
2019-03-12T13:13:46.266Z,996.87
2019-03-12T13:14:57.217Z,996.84
2019-03-12T13:16:08.175Z,996.71
2019-03-12T13:17:19.128Z,996.72
2019-03-12T13:18:30.621Z,996.74
2019-03-12T13:19:42.112Z,996.62
2019-03-12T13:20:53.508Z,996.62
2019-03-12T13:22:04.462Z,996.61
2019-03-12T13:23:15.911Z,996.46
2019-03-12T13:24:26.855Z,996.55
2019-03-12T13:25:37.801Z,996.68
2019-03-12T13:26:49.749Z,996.60
2019-03-12T13:28:00.697Z,996.62
2019-03-12T13:29:11.632Z,996.54
2019-03-12T13:30:22.581Z,996.42
2019-03-12T13:31:33.528Z,996.38
2019-03-12T13:32:44.632Z,996.22
2019-03-12T13:33:56.071Z,996.16
2019-03-12T13:35:08.004Z,996.28
2019-03-12T13:36:18.952Z,996.24
2019-03-12T13:37:29.899Z,996.28
2019-03-12T13:38:46.609Z,996.36
2019-03-12T13:39:53.292Z,996.41
2019-03-12T13:41:04.265Z,996.47
2019-03-12T13:42:15.125Z,996.34
2019-03-12T13:43:26.060Z,996.17
2019-03-12T13:44:37.077Z,996.11
2019-03-12T13:45:47.971Z,995.83
2019-03-12T13:46:58.954Z,995.33
2019-03-12T13:48:09.914Z,995.00
2019-03-12T13:49:21.080Z,994.75
2019-03-12T13:50:31.851Z,994.60
2019-03-12T13:51:42.843Z,994.46
2019-03-12T13:52:53.821Z,994.54
2019-03-12T13:54:05.823Z,994.60
2019-03-12T13:55:16.816Z,994.62
2019-03-12T13:56:27.800Z,994.68
2019-03-12T13:57:38.688Z,994.68
2019-03-12T13:58:49.646Z,994.90
2019-03-12T14:00:00.601Z,994.83
2019-03-12T14:01:12.049Z,994.85
2019-03-12T14:02:23.013Z,994.93
2019-03-12T14:03:34.004Z,995.05
2019-03-12T14:04:44.970Z,995.01
2019-03-12T14:05:55.942Z,994.89
2019-03-12T14:07:06.918Z,994.50
2019-03-12T14:08:17.908Z,994.55
2019-03-12T14:09:29.878Z,994.35
2019-03-12T14:10:40.856Z,994.24
2019-03-12T14:11:51.833Z,994.27
2019-03-12T14:13:02.819Z,994.28
2019-03-12T14:14:13.794Z,994.25
2019-03-12T14:15:24.770Z,994.27
2019-03-12T14:16:35.764Z,994.24
2019-03-12T14:17:47.247Z,994.19
2019-03-12T14:18:58.230Z,994.14
2019-03-12T14:20:09.214Z,994.02
2019-03-12T14:21:20.184Z,993.94
2019-03-12T14:22:31.172Z,993.86
2019-03-12T14:23:42.633Z,993.81
2019-03-12T14:24:53.611Z,993.77
2019-03-12T14:26:05.088Z,993.75